Main page
METAR-TAF:

METAR-TAF

Airports :

Bonriki International Airport

Tarawa, Kiribati

latitude: 01-21N, longitude: 172-55E, elevation: 2 m

Current weather observation

The report was made 30 minutes ago, at 13:00 UTC
Wind 1 kt from variable directions
Temperature 29°C
Humidity 74%
Pressure 1008 hPa
Visibility 10 km or more
Few clouds at a height of 1900 ft

METAR: NGTA 291300Z VRB01KT 9999 FEW019 29/24 Q1008

Time: 03:30 (13:30 UTC)

Forecast

The report was made 2 hours and 12 minutes ago, at 11:18 UTC
Forecast valid from 29 at 12 UTC to 01 at 12 UTC
Wind 5 kt from the Northeast
Visibility 10 km or more
Few clouds at a height of 1900 ft
Probability 40% :
Temporary
from 29 at 12 UTC to 01 at 12 UTC
Visibility: 5000 m
Broken clouds at a height of 1500 ft
Few clouds at a height of 1800 ft, Cumulonimbus.
thunderstorm, rain

TAF: NGTA 291118Z 2912/0112 05005KT 9999 FEW019 PROB40 TEMPO 2912/0112 5000 TSRA BKN015 FEW018CB

Weather observations and forecasts of more than 4000 airports (METAR and TAF reports).

The available stations are represented by yellow and red dots on the map.

Hover mouse over dot to see the name of the station.

Then click to see weather observations and forecasts.

To change the map : click on the green buttons with a black cross to zoom in, on the green button with a dash to zoom out, or on the green arrows for adjacent maps.


METAR-TAF: